sensor_id;sensor_type;location;lat;lon;timestamp;pressure;altitude;pressure_sealevel;temperature;humidity
54936;BME280;40838;50.676;7.838;2022-12-11T00:02:19;97776.25;;;-2.59;nan
54936;BME280;40838;50.676;7.838;2022-12-11T00:04:46;97780.31;;;-2.64;nan
54936;BME280;40838;50.676;7.838;2022-12-11T00:07:14;97775.13;;;-2.56;nan
54936;BME280;40838;50.676;7.838;2022-12-11T00:09:41;97774.13;;;-2.55;nan
54936;BME280;40838;50.676;7.838;2022-12-11T00:12:08;97780.16;;;-2.63;nan
54936;BME280;40838;50.676;7.838;2022-12-11T00:14:35;97786.13;;;-2.62;nan
54936;BME280;40838;50.676;7.838;2022-12-11T00:17:02;97785.50;;;-2.72;nan
54936;BME280;40838;50.676;7.838;2022-12-11T00:19:29;97780.94;;;-2.54;nan
54936;BME280;40838;50.676;7.838;2022-12-11T00:21:56;97790.97;;;-2.67;nan
54936;BME280;40838;50.676;7.838;2022-12-11T00:24:24;97792.28;;;-2.71;nan
54936;BME280;40838;50.676;7.838;2022-12-11T00:26:51;97791.63;;;-2.65;nan
54936;BME280;40838;50.676;7.838;2022-12-11T00:29:18;97790.03;;;-2.75;nan
54936;BME280;40838;50.676;7.838;2022-12-11T00:31:45;97793.09;;;-2.71;nan
54936;BME280;40838;50.676;7.838;2022-12-11T00:34:12;97787.41;;;-2.66;nan
54936;BME280;40838;50.676;7.838;2022-12-11T00:36:42;97785.94;;;-2.61;nan
54936;BME280;40838;50.676;7.838;2022-12-11T00:39:09;97793.06;;;-2.63;nan
54936;BME280;40838;50.676;7.838;2022-12-11T00:41:38;97793.00;;;-2.46;nan
54936;BME280;40838;50.676;7.838;2022-12-11T00:44:05;97785.56;;;-2.49;nan
54936;BME280;40838;50.676;7.838;2022-12-11T00:46:32;97783.00;;;-2.49;nan
54936;BME280;40838;50.676;7.838;2022-12-11T00:48:59;97776.81;;;-2.40;nan
54936;BME280;40838;50.676;7.838;2022-12-11T00:51:26;97783.13;;;-2.43;nan
54936;BME280;40838;50.676;7.838;2022-12-11T00:53:54;97783.63;;;-2.47;nan
54936;BME280;40838;50.676;7.838;2022-12-11T00:56:21;97785.25;;;-2.55;nan
54936;BME280;40838;50.676;7.838;2022-12-11T00:58:51;97785.22;;;-2.38;nan
54936;BME280;40838;50.676;7.838;2022-12-11T01:01:20;97782.34;;;-2.52;nan
54936;BME280;40838;50.676;7.838;2022-12-11T01:03:47;97784.28;;;-2.45;nan
54936;BME280;40838;50.676;7.838;2022-12-11T01:06:16;97783.44;;;-2.46;nan
54936;BME280;40838;50.676;7.838;2022-12-11T01:08:46;97787.34;;;-2.42;nan
54936;BME280;40838;50.676;7.838;2022-12-11T01:11:33;97790.63;;;-2.56;nan
54936;BME280;40838;50.676;7.838;2022-12-11T01:14:00;97789.13;;;-2.42;nan
54936;BME280;40838;50.676;7.838;2022-12-11T01:16:30;97780.44;;;-2.58;nan
54936;BME280;40838;50.676;7.838;2022-12-11T01:18:57;97785.25;;;-2.55;nan
54936;BME280;40838;50.676;7.838;2022-12-11T01:21:24;97789.63;;;-2.55;nan
54936;BME280;40838;50.676;7.838;2022-12-11T01:23:51;97786.91;;;-2.54;nan
54936;BME280;40838;50.676;7.838;2022-12-11T01:26:18;97784.41;;;-2.39;nan
54936;BME280;40838;50.676;7.838;2022-12-11T01:28:48;97793.00;;;-2.46;nan
54936;BME280;40838;50.676;7.838;2022-12-11T01:31:18;97788.28;;;-2.43;nan
54936;BME280;40838;50.676;7.838;2022-12-11T01:33:45;97792.94;;;-2.30;nan
54936;BME280;40838;50.676;7.838;2022-12-11T01:36:14;97791.34;;;-2.39;nan
54936;BME280;40838;50.676;7.838;2022-12-11T01:38:42;97787.28;;;-2.34;nan
54936;BME280;40838;50.676;7.838;2022-12-11T01:41:09;97795.66;;;-2.32;nan
54936;BME280;40838;50.676;7.838;2022-12-11T01:43:58;97784.09;;;-2.44;nan
54936;BME280;40838;50.676;7.838;2022-12-11T01:46:28;97784.22;;;-2.37;nan
54936;BME280;40838;50.676;7.838;2022-12-11T01:48:56;97778.50;;;-2.16;nan
54936;BME280;40838;50.676;7.838;2022-12-11T01:51:25;97772.81;;;-2.20;nan
54936;BME280;40838;50.676;7.838;2022-12-11T01:53:55;97770.88;;;-2.18;nan
54936;BME280;40838;50.676;7.838;2022-12-11T01:56:24;97773.72;;;-2.36;nan
54936;BME280;40838;50.676;7.838;2022-12-11T01:58:55;97773.63;;;-2.51;nan
54936;BME280;40838;50.676;7.838;2022-12-11T02:01:29;97768.63;;;-2.52;nan
54936;BME280;40838;50.676;7.838;2022-12-11T02:03:58;97770.72;;;-2.47;nan
54936;BME280;40838;50.676;7.838;2022-12-11T02:06:34;97773.50;;;-2.57;nan
54936;BME280;40838;50.676;7.838;2022-12-11T02:09:02;97779.25;;;-2.39;nan
54936;BME280;40838;50.676;7.838;2022-12-11T02:11:37;97781.38;;;-2.42;nan
54936;BME280;40838;50.676;7.838;2022-12-11T02:14:12;97775.53;;;-2.36;nan
54936;BME280;40838;50.676;7.838;2022-12-11T02:16:45;97764.06;;;-2.42;nan
54936;BME280;40838;50.676;7.838;2022-12-11T02:19:25;97771.78;;;-2.34;nan
54936;BME280;40838;50.676;7.838;2022-12-11T02:21:57;97773.81;;;-2.21;nan
54936;BME280;40838;50.676;7.838;2022-12-11T02:24:46;97769.16;;;-2.25;nan
54936;BME280;40838;50.676;7.838;2022-12-11T02:27:32;97761.47;;;-2.34;nan
54936;BME280;40838;50.676;7.838;2022-12-11T02:30:06;97772.31;;;-2.46;nan
54936;BME280;40838;50.676;7.838;2022-12-11T02:32:36;97767.50;;;-2.49;nan
54936;BME280;40838;50.676;7.838;2022-12-11T02:35:10;97769.25;;;-2.42;nan
54936;BME280;40838;50.676;7.838;2022-12-11T02:37:43;97777.41;;;-2.30;nan
54936;BME280;40838;50.676;7.838;2022-12-11T02:40:13;97773.59;;;-2.42;nan
54936;BME280;40838;50.676;7.838;2022-12-11T02:42:43;97776.53;;;-2.45;nan
54936;BME280;40838;50.676;7.838;2022-12-11T02:45:13;97777.94;;;-2.43;nan
54936;BME280;40838;50.676;7.838;2022-12-11T02:47:42;97770.72;;;-2.47;nan
54936;BME280;40838;50.676;7.838;2022-12-11T02:50:13;97772.31;;;-2.46;nan
54936;BME280;40838;50.676;7.838;2022-12-11T02:52:41;97771.28;;;-2.60;nan
54936;BME280;40838;50.676;7.838;2022-12-11T02:55:11;97773.75;;;-2.44;nan
54936;BME280;40838;50.676;7.838;2022-12-11T02:57:44;97771.88;;;-2.58;nan
54936;BME280;40838;50.676;7.838;2022-12-11T03:00:14;97764.75;;;-2.48;nan
54936;BME280;40838;50.676;7.838;2022-12-11T03:02:43;97766.28;;;-2.31;nan
54936;BME280;40838;50.676;7.838;2022-12-11T03:05:12;97763.22;;;-2.34;nan
54936;BME280;40838;50.676;7.838;2022-12-11T03:07:41;97761.72;;;-2.29;nan
54936;BME280;40838;50.676;7.838;2022-12-11T03:10:12;97758.81;;;-2.25;nan
54936;BME280;40838;50.676;7.838;2022-12-11T03:12:42;97750.84;;;-2.47;nan
54936;BME280;40838;50.676;7.838;2022-12-11T03:15:15;97751.84;;;-2.48;nan
54936;BME280;40838;50.676;7.838;2022-12-11T03:17:48;97756.81;;;-2.46;nan
54936;BME280;40838;50.676;7.838;2022-12-11T03:20:27;97759.50;;;-2.32;nan
54936;BME280;40838;50.676;7.838;2022-12-11T03:23:07;97753.09;;;-2.44;nan
54936;BME280;40838;50.676;7.838;2022-12-11T03:25:40;97748.19;;;-2.31;nan
54936;BME280;40838;50.676;7.838;2022-12-11T03:28:12;97751.56;;;-2.30;nan
54936;BME280;40838;50.676;7.838;2022-12-11T03:30:44;97750.16;;;-2.41;nan
54936;BME280;40838;50.676;7.838;2022-12-11T03:33:16;97751.72;;;-2.32;nan
54936;BME280;40838;50.676;7.838;2022-12-11T03:35:48;97751.25;;;-2.27;nan
54936;BME280;40838;50.676;7.838;2022-12-11T03:38:21;97748.22;;;-2.39;nan
54936;BME280;40838;50.676;7.838;2022-12-11T03:40:53;97748.72;;;-2.43;nan
54936;BME280;40838;50.676;7.838;2022-12-11T03:43:24;97750.72;;;-2.22;nan
54936;BME280;40838;50.676;7.838;2022-12-11T03:45:55;97755.59;;;-2.59;nan
54936;BME280;40838;50.676;7.838;2022-12-11T03:48:28;97761.63;;;-2.75;nan
54936;BME280;40838;50.676;7.838;2022-12-11T03:50:57;97754.00;;;-2.68;nan
54936;BME280;40838;50.676;7.838;2022-12-11T03:53:25;97758.13;;;-2.51;nan
54936;BME280;40838;50.676;7.838;2022-12-11T03:55:55;97755.16;;;-2.70;nan
54936;BME280;40838;50.676;7.838;2022-12-11T03:58:25;97760.78;;;-2.67;nan
54936;BME280;40838;50.676;7.838;2022-12-11T04:00:53;97756.31;;;-2.42;nan
54936;BME280;40838;50.676;7.838;2022-12-11T04:03:20;97757.19;;;-2.58;nan
54936;BME280;40838;50.676;7.838;2022-12-11T04:05:49;97756.78;;;-2.38;nan
54936;BME280;40838;50.676;7.838;2022-12-11T04:08:17;97758.22;;;-2.36;nan
54936;BME280;40838;50.676;7.838;2022-12-11T04:10:45;97758.56;;;-2.39;nan
54936;BME280;40838;50.676;7.838;2022-12-11T04:13:12;97760.03;;;-2.44;nan
54936;BME280;40838;50.676;7.838;2022-12-11T04:15:39;97752.59;;;-2.39;nan
54936;BME280;40838;50.676;7.838;2022-12-11T04:18:08;97746.19;;;-2.20;nan
54936;BME280;40838;50.676;7.838;2022-12-11T04:21:07;97746.28;;;-2.14;nan
54936;BME280;40838;50.676;7.838;2022-12-11T04:23:57;97745.75;;;-2.01;nan
54936;BME280;40838;50.676;7.838;2022-12-11T04:26:43;97747.81;;;-2.19;nan
54936;BME280;40838;50.676;7.838;2022-12-11T04:29:11;97748.97;;;-1.99;nan
54936;BME280;40838;50.676;7.838;2022-12-11T04:31:37;97747.16;;;-2.21;nan
54936;BME280;40838;50.676;7.838;2022-12-11T04:34:06;97748.97;;;-2.22;nan
54936;BME280;40838;50.676;7.838;2022-12-11T04:36:32;97755.22;;;-2.16;nan
54936;BME280;40838;50.676;7.838;2022-12-11T04:39:00;97752.69;;;-2.24;nan
54936;BME280;40838;50.676;7.838;2022-12-11T04:41:27;97749.41;;;-2.18;nan
54936;BME280;40838;50.676;7.838;2022-12-11T04:43:54;97752.25;;;-2.36;nan
54936;BME280;40838;50.676;7.838;2022-12-11T04:46:22;97745.22;;;-2.19;nan
54936;BME280;40838;50.676;7.838;2022-12-11T04:48:50;97745.00;;;-2.10;nan
54936;BME280;40838;50.676;7.838;2022-12-11T04:51:19;97740.94;;;-2.04;nan
54936;BME280;40838;50.676;7.838;2022-12-11T04:53:46;97740.31;;;-2.14;nan
54936;BME280;40838;50.676;7.838;2022-12-11T04:56:14;97743.59;;;-2.20;nan
54936;BME280;40838;50.676;7.838;2022-12-11T04:58:43;97742.03;;;-2.30;nan
54936;BME280;40838;50.676;7.838;2022-12-11T05:01:12;97741.81;;;-2.20;nan
54936;BME280;40838;50.676;7.838;2022-12-11T05:03:40;97743.09;;;-2.16;nan
54936;BME280;40838;50.676;7.838;2022-12-11T05:06:08;97739.63;;;-2.08;nan
54936;BME280;40838;50.676;7.838;2022-12-11T05:08:38;97739.72;;;-2.16;nan
54936;BME280;40838;50.676;7.838;2022-12-11T05:11:08;97744.19;;;-2.10;nan
54936;BME280;40838;50.676;7.838;2022-12-11T05:13:35;97742.19;;;-2.00;nan
54936;BME280;40838;50.676;7.838;2022-12-11T05:16:03;97739.91;;;-2.26;nan
54936;BME280;40838;50.676;7.838;2022-12-11T05:18:30;97731.63;;;-2.13;nan
54936;BME280;40838;50.676;7.838;2022-12-11T05:20:58;97734.31;;;-2.07;nan
54936;BME280;40838;50.676;7.838;2022-12-11T05:23:26;97730.97;;;-2.15;nan
54936;BME280;40838;50.676;7.838;2022-12-11T05:25:56;97736.56;;;-2.03;nan
54936;BME280;40838;50.676;7.838;2022-12-11T05:28:24;97731.44;;;-2.12;nan
54936;BME280;40838;50.676;7.838;2022-12-11T05:30:54;97726.91;;;-2.10;nan
54936;BME280;40838;50.676;7.838;2022-12-11T05:33:22;97732.13;;;-1.95;nan
54936;BME280;40838;50.676;7.838;2022-12-11T05:35:49;97729.97;;;-2.37;nan
54936;BME280;40838;50.676;7.838;2022-12-11T05:38:16;97721.25;;;-2.36;nan
54936;BME280;40838;50.676;7.838;2022-12-11T05:40:43;97721.22;;;-2.28;nan
54936;BME280;40838;50.676;7.838;2022-12-11T05:43:12;97721.47;;;-2.23;nan
54936;BME280;40838;50.676;7.838;2022-12-11T05:45:39;97725.84;;;-2.23;nan
54936;BME280;40838;50.676;7.838;2022-12-11T05:48:06;97722.28;;;-2.45;nan
54936;BME280;40838;50.676;7.838;2022-12-11T05:50:33;97714.19;;;-2.42;nan
54936;BME280;40838;50.676;7.838;2022-12-11T05:52:59;97707.81;;;-2.32;nan
54936;BME280;40838;50.676;7.838;2022-12-11T05:55:27;97715.34;;;-2.22;nan
54936;BME280;40838;50.676;7.838;2022-12-11T05:57:54;97709.53;;;-2.24;nan
54936;BME280;40838;50.676;7.838;2022-12-11T06:00:22;97712.19;;;-2.09;nan
54936;BME280;40838;50.676;7.838;2022-12-11T06:02:49;97713.78;;;-2.08;nan
54936;BME280;40838;50.676;7.838;2022-12-11T06:05:15;97708.22;;;-2.20;nan
54936;BME280;40838;50.676;7.838;2022-12-11T06:07:42;97709.50;;;-2.16;nan
54936;BME280;40838;50.676;7.838;2022-12-11T06:10:09;97713.69;;;-2.15;nan
54936;BME280;40838;50.676;7.838;2022-12-11T06:12:36;97717.19;;;-2.08;nan
54936;BME280;40838;50.676;7.838;2022-12-11T06:15:03;97707.53;;;-2.14;nan
54936;BME280;40838;50.676;7.838;2022-12-11T06:17:32;97718.16;;;-2.09;nan
54936;BME280;40838;50.676;7.838;2022-12-11T06:19:59;97703.19;;;-2.13;nan
54936;BME280;40838;50.676;7.838;2022-12-11T06:22:26;97704.19;;;-1.99;nan
54936;BME280;40838;50.676;7.838;2022-12-11T06:24:53;97701.56;;;-1.91;nan
54936;BME280;40838;50.676;7.838;2022-12-11T06:27:20;97698.16;;;-1.92;nan
54936;BME280;40838;50.676;7.838;2022-12-11T06:29:46;97694.00;;;-1.93;nan
54936;BME280;40838;50.676;7.838;2022-12-11T06:32:14;97698.22;;;-2.00;nan
54936;BME280;40838;50.676;7.838;2022-12-11T06:34:42;97702.25;;;-1.97;nan
54936;BME280;40838;50.676;7.838;2022-12-11T06:37:09;97693.25;;;-2.24;nan
54936;BME280;40838;50.676;7.838;2022-12-11T06:39:36;97691.53;;;-2.40;nan
54936;BME280;40838;50.676;7.838;2022-12-11T06:42:03;97696.78;;;-2.02;nan
54936;BME280;40838;50.676;7.838;2022-12-11T06:44:30;97697.06;;;-1.97;nan
54936;BME280;40838;50.676;7.838;2022-12-11T06:46:57;97700.91;;;-1.93;nan
54936;BME280;40838;50.676;7.838;2022-12-11T06:49:25;97700.97;;;-1.78;nan
54936;BME280;40838;50.676;7.838;2022-12-11T06:51:53;97701.03;;;-1.87;nan
54936;BME280;40838;50.676;7.838;2022-12-11T06:54:24;97704.13;;;-1.91;nan
54936;BME280;40838;50.676;7.838;2022-12-11T06:56:51;97702.75;;;-1.79;nan
54936;BME280;40838;50.676;7.838;2022-12-11T06:59:18;97707.22;;;-1.73;nan
54936;BME280;40838;50.676;7.838;2022-12-11T07:01:45;97704.19;;;-1.76;nan
54936;BME280;40838;50.676;7.838;2022-12-11T07:04:12;97704.38;;;-1.78;nan
54936;BME280;40838;50.676;7.838;2022-12-11T07:06:38;97697.81;;;-1.89;nan
54936;BME280;40838;50.676;7.838;2022-12-11T07:09:07;97697.13;;;-1.83;nan
54936;BME280;40838;50.676;7.838;2022-12-11T07:11:34;97705.63;;;-1.74;nan
54936;BME280;40838;50.676;7.838;2022-12-11T07:14:02;97711.50;;;-1.80;nan
54936;BME280;40838;50.676;7.838;2022-12-11T07:16:29;97715.56;;;-1.86;nan
54936;BME280;40838;50.676;7.838;2022-12-11T07:18:55;97719.50;;;-1.90;nan
54936;BME280;40838;50.676;7.838;2022-12-11T07:21:22;97719.09;;;-2.24;nan
54936;BME280;40838;50.676;7.838;2022-12-11T07:23:49;97720.25;;;-2.04;nan
54936;BME280;40838;50.676;7.838;2022-12-11T07:26:19;97726.72;;;-1.85;nan
54936;BME280;40838;50.676;7.838;2022-12-11T07:28:47;97725.81;;;-1.92;nan
54936;BME280;40838;50.676;7.838;2022-12-11T07:31:15;97732.44;;;-1.90;nan
54936;BME280;40838;50.676;7.838;2022-12-11T07:33:45;97724.59;;;-1.82;nan
54936;BME280;40838;50.676;7.838;2022-12-11T07:36:14;97730.50;;;-1.73;nan
54936;BME280;40838;50.676;7.838;2022-12-11T07:38:41;97725.97;;;-1.71;nan
54936;BME280;40838;50.676;7.838;2022-12-11T07:41:10;97712.59;;;-1.74;nan
54936;BME280;40838;50.676;7.838;2022-12-11T07:43:40;97712.47;;;-1.81;nan
54936;BME280;40838;50.676;7.838;2022-12-11T07:46:09;97705.47;;;-1.72;nan
54936;BME280;40838;50.676;7.838;2022-12-11T07:48:38;97706.72;;;-1.68;nan
54936;BME280;40838;50.676;7.838;2022-12-11T07:51:10;97706.56;;;-1.52;nan
54936;BME280;40838;50.676;7.838;2022-12-11T07:53:39;97703.75;;;-1.65;nan
54936;BME280;40838;50.676;7.838;2022-12-11T07:56:06;97714.91;;;-1.65;nan
54936;BME280;40838;50.676;7.838;2022-12-11T07:58:34;97718.66;;;-1.67;nan
54936;BME280;40838;50.676;7.838;2022-12-11T08:01:03;97712.63;;;-1.45;nan
54936;BME280;40838;50.676;7.838;2022-12-11T08:03:30;97717.16;;;-1.62;nan
54936;BME280;40838;50.676;7.838;2022-12-11T08:05:56;97711.09;;;-1.54;nan
54936;BME280;40838;50.676;7.838;2022-12-11T08:08:23;97713.16;;;-1.49;nan
54936;BME280;40838;50.676;7.838;2022-12-11T08:10:50;97712.84;;;-1.46;nan
54936;BME280;40838;50.676;7.838;2022-12-11T08:13:17;97721.84;;;-1.42;nan
54936;BME280;40838;50.676;7.838;2022-12-11T08:15:44;97714.88;;;-1.27;nan
54936;BME280;40838;50.676;7.838;2022-12-11T08:18:14;97713.28;;;-1.43;nan
54936;BME280;40838;50.676;7.838;2022-12-11T08:20:41;97721.47;;;-1.77;nan
54936;BME280;40838;50.676;7.838;2022-12-11T08:23:11;97722.38;;;-1.70;nan
54936;BME280;40838;50.676;7.838;2022-12-11T08:25:38;97727.25;;;-1.67;nan
54936;BME280;40838;50.676;7.838;2022-12-11T08:28:06;97730.53;;;-1.58;nan
54936;BME280;40838;50.676;7.838;2022-12-11T08:30:37;97718.63;;;-1.44;nan
54936;BME280;40838;50.676;7.838;2022-12-11T08:33:07;97712.34;;;-1.50;nan
54936;BME280;40838;50.676;7.838;2022-12-11T08:35:39;97715.94;;;-1.51;nan
54936;BME280;40838;50.676;7.838;2022-12-11T08:38:06;97717.31;;;-1.40;nan
54936;BME280;40838;50.676;7.838;2022-12-11T08:40:33;97716.59;;;-1.34;nan
54936;BME280;40838;50.676;7.838;2022-12-11T08:43:00;97724.88;;;-1.39;nan
54936;BME280;40838;50.676;7.838;2022-12-11T08:45:27;97725.66;;;-1.38;nan
54936;BME280;40838;50.676;7.838;2022-12-11T08:47:54;97725.25;;;-1.27;nan
54936;BME280;40838;50.676;7.838;2022-12-11T08:50:21;97724.97;;;-1.32;nan
54936;BME280;40838;50.676;7.838;2022-12-11T08:52:50;97735.19;;;-1.53;nan
54936;BME280;40838;50.676;7.838;2022-12-11T08:55:18;97728.84;;;-1.89;nan
54936;BME280;40838;50.676;7.838;2022-12-11T08:57:46;97730.69;;;-1.74;nan
54936;BME280;40838;50.676;7.838;2022-12-11T09:00:14;97734.72;;;-1.72;nan
54936;BME280;40838;50.676;7.838;2022-12-11T09:02:41;97729.69;;;-1.73;nan
54936;BME280;40838;50.676;7.838;2022-12-11T09:05:11;97734.13;;;-1.82;nan
54936;BME280;40838;50.676;7.838;2022-12-11T09:07:38;97732.22;;;-1.65;nan
54936;BME280;40838;50.676;7.838;2022-12-11T09:10:07;97732.81;;;-1.55;nan
54936;BME280;40838;50.676;7.838;2022-12-11T09:12:35;97732.34;;;-1.44;nan
54936;BME280;40838;50.676;7.838;2022-12-11T09:15:04;97729.88;;;-1.37;nan
54936;BME280;40838;50.676;7.838;2022-12-11T09:17:33;97730.13;;;-1.32;nan
54936;BME280;40838;50.676;7.838;2022-12-11T09:20:00;97733.28;;;-1.22;nan
54936;BME280;40838;50.676;7.838;2022-12-11T09:22:27;97731.88;;;-1.85;nan
54936;BME280;40838;50.676;7.838;2022-12-11T09:24:55;97731.53;;;-1.82;nan
54936;BME280;40838;50.676;7.838;2022-12-11T09:27:23;97727.34;;;-1.83;nan
54936;BME280;40838;50.676;7.838;2022-12-11T09:29:50;97723.31;;;-1.63;nan
54936;BME280;40838;50.676;7.838;2022-12-11T09:32:17;97722.63;;;-1.42;nan
54936;BME280;40838;50.676;7.838;2022-12-11T09:34:44;97729.88;;;-1.75;nan
54936;BME280;40838;50.676;7.838;2022-12-11T09:37:14;97730.44;;;-1.65;nan
54936;BME280;40838;50.676;7.838;2022-12-11T09:39:41;97721.78;;;-1.72;nan
54936;BME280;40838;50.676;7.838;2022-12-11T09:42:13;97726.34;;;-1.59;nan
54936;BME280;40838;50.676;7.838;2022-12-11T09:44:46;97717.88;;;-1.53;nan
54936;BME280;40838;50.676;7.838;2022-12-11T09:47:22;97724.22;;;-1.41;nan
54936;BME280;40838;50.676;7.838;2022-12-11T09:49:53;97720.50;;;-1.23;nan
54936;BME280;40838;50.676;7.838;2022-12-11T09:52:25;97715.44;;;-1.17;nan
54936;BME280;40838;50.676;7.838;2022-12-11T09:54:58;97713.72;;;-1.39;nan
54936;BME280;40838;50.676;7.838;2022-12-11T09:57:36;97711.28;;;-1.41;nan
54936;BME280;40838;50.676;7.838;2022-12-11T10:00:25;97713.66;;;-1.31;nan
54936;BME280;40838;50.676;7.838;2022-12-11T10:05:50;97707.97;;;-1.49;nan
54936;BME280;40838;50.676;7.838;2022-12-11T10:08:28;97715.97;;;-1.74;nan
54936;BME280;40838;50.676;7.838;2022-12-11T10:10:57;97706.34;;;-1.65;nan
54936;BME280;40838;50.676;7.838;2022-12-11T10:13:30;97699.69;;;-1.45;nan
54936;BME280;40838;50.676;7.838;2022-12-11T10:16:10;97693.41;;;-1.65;nan
54936;BME280;40838;50.676;7.838;2022-12-11T10:18:41;97702.59;;;-1.25;nan
54936;BME280;40838;50.676;7.838;2022-12-11T10:21:08;97701.78;;;-1.10;nan
54936;BME280;40838;50.676;7.838;2022-12-11T10:23:40;97690.06;;;-0.92;nan
54936;BME280;40838;50.676;7.838;2022-12-11T10:26:11;97690.78;;;-0.83;nan
54936;BME280;40838;50.676;7.838;2022-12-11T10:28:42;97687.28;;;-0.75;nan
54936;BME280;40838;50.676;7.838;2022-12-11T10:31:15;97683.94;;;-0.54;nan
54936;BME280;40838;50.676;7.838;2022-12-11T10:33:55;97680.97;;;-0.51;nan
54936;BME280;40838;50.676;7.838;2022-12-11T10:36:38;97680.81;;;-0.64;nan
54936;BME280;40838;50.676;7.838;2022-12-11T10:39:16;97676.00;;;-0.68;nan
54936;BME280;40838;50.676;7.838;2022-12-11T10:41:54;97671.56;;;-0.74;nan
54936;BME280;40838;50.676;7.838;2022-12-11T10:44:25;97675.69;;;-0.43;nan
54936;BME280;40838;50.676;7.838;2022-12-11T10:47:04;97670.94;;;-0.18;nan
54936;BME280;40838;50.676;7.838;2022-12-11T10:49:33;97669.72;;;-0.22;nan
54936;BME280;40838;50.676;7.838;2022-12-11T10:52:09;97659.22;;;-0.72;nan
54936;BME280;40838;50.676;7.838;2022-12-11T10:54:39;97667.25;;;-0.66;nan
54936;BME280;40838;50.676;7.838;2022-12-11T10:57:08;97664.59;;;-0.88;nan
54936;BME280;40838;50.676;7.838;2022-12-11T10:59:39;97670.34;;;-0.93;nan
54936;BME280;40838;50.676;7.838;2022-12-11T11:02:20;97661.97;;;-1.09;nan
54936;BME280;40838;50.676;7.838;2022-12-11T11:04:49;97661.59;;;-1.06;nan
54936;BME280;40838;50.676;7.838;2022-12-11T11:07:19;97664.59;;;-0.88;nan
54936;BME280;40838;50.676;7.838;2022-12-11T11:09:47;97669.03;;;-0.52;nan
54936;BME280;40838;50.676;7.838;2022-12-11T11:12:20;97654.25;;;-1.03;nan
54936;BME280;40838;50.676;7.838;2022-12-11T11:14:57;97656.94;;;-1.26;nan
54936;BME280;40838;50.676;7.838;2022-12-11T11:17:26;97652.50;;;-1.02;nan
54936;BME280;40838;50.676;7.838;2022-12-11T11:19:55;97648.38;;;-1.26;nan
54936;BME280;40838;50.676;7.838;2022-12-11T11:22:24;97649.28;;;-1.34;nan
54936;BME280;40838;50.676;7.838;2022-12-11T11:24:54;97646.69;;;-1.04;nan
54936;BME280;40838;50.676;7.838;2022-12-11T11:27:28;97652.50;;;-1.02;nan
54936;BME280;40838;50.676;7.838;2022-12-11T11:29:57;97647.84;;;-1.22;nan
54936;BME280;40838;50.676;7.838;2022-12-11T11:32:31;97648.03;;;-1.38;nan
54936;BME280;40838;50.676;7.838;2022-12-11T11:35:16;97649.19;;;-1.11;nan
54936;BME280;40838;50.676;7.838;2022-12-11T11:37:45;97645.63;;;-1.10;nan
54936;BME280;40838;50.676;7.838;2022-12-11T11:40:17;97646.06;;;-1.06;nan
54936;BME280;40838;50.676;7.838;2022-12-11T11:42:51;97640.69;;;-0.90;nan
54936;BME280;40838;50.676;7.838;2022-12-11T11:45:23;97640.09;;;-1.07;nan
54936;BME280;40838;50.676;7.838;2022-12-11T11:47:59;97639.53;;;-0.87;nan
54936;BME280;40838;50.676;7.838;2022-12-11T11:50:32;97629.97;;;-0.87;nan
54936;BME280;40838;50.676;7.838;2022-12-11T11:53:03;97639.22;;;-0.78;nan
54936;BME280;40838;50.676;7.838;2022-12-11T11:55:38;97630.66;;;-0.78;nan
54936;BME280;40838;50.676;7.838;2022-12-11T11:58:12;97626.72;;;-0.74;nan
54936;BME280;40838;50.676;7.838;2022-12-11T12:00:41;97631.00;;;-0.66;nan
54936;BME280;40838;50.676;7.838;2022-12-11T12:03:14;97620.91;;;-0.76;nan
54936;BME280;40838;50.676;7.838;2022-12-11T12:05:47;97637.38;;;-0.84;nan
54936;BME280;40838;50.676;7.838;2022-12-11T12:08:28;97632.28;;;-0.92;nan
54936;BME280;40838;50.676;7.838;2022-12-11T12:11:02;97641.41;;;-0.96;nan
54936;BME280;40838;50.676;7.838;2022-12-11T12:13:40;97636.66;;;-0.93;nan
54936;BME280;40838;50.676;7.838;2022-12-11T12:16:16;97628.09;;;-0.93;nan
54936;BME280;40838;50.676;7.838;2022-12-11T12:18:51;97630.59;;;-1.00;nan
54936;BME280;40838;50.676;7.838;2022-12-11T12:21:28;97634.19;;;-1.01;nan
54936;BME280;40838;50.676;7.838;2022-12-11T12:24:04;97622.03;;;-1.00;nan
54936;BME280;40838;50.676;7.838;2022-12-11T12:26:35;97620.22;;;-1.00;nan
54936;BME280;40838;50.676;7.838;2022-12-11T12:29:13;97622.13;;;-0.94;nan
54936;BME280;40838;50.676;7.838;2022-12-11T12:31:54;97622.91;;;-0.78;nan
54936;BME280;40838;50.676;7.838;2022-12-11T12:34:40;97618.44;;;-0.84;nan
54936;BME280;40838;50.676;7.838;2022-12-11T12:37:17;97608.44;;;-0.87;nan
54936;BME280;40838;50.676;7.838;2022-12-11T12:39:52;97606.91;;;-0.97;nan
54936;BME280;40838;50.676;7.838;2022-12-11T12:42:29;97598.16;;;-0.81;nan
54936;BME280;40838;50.676;7.838;2022-12-11T12:45:05;97601.75;;;-0.82;nan
54936;BME280;40838;50.676;7.838;2022-12-11T12:47:39;97609.63;;;-0.69;nan
54936;BME280;40838;50.676;7.838;2022-12-11T12:50:10;97599.53;;;-0.63;nan
54936;BME280;40838;50.676;7.838;2022-12-11T12:52:39;97607.41;;;-0.72;nan
54936;BME280;40838;50.676;7.838;2022-12-11T12:55:17;97597.91;;;-0.64;nan
54936;BME280;40838;50.676;7.838;2022-12-11T12:57:49;97605.06;;;-1.03;nan
54936;BME280;40838;50.676;7.838;2022-12-11T13:00:28;97605.53;;;-1.29;nan
54936;BME280;40838;50.676;7.838;2022-12-11T13:02:56;97593.44;;;-0.92;nan
54936;BME280;40838;50.676;7.838;2022-12-11T13:05:26;97599.00;;;-0.74;nan
54936;BME280;40838;50.676;7.838;2022-12-11T13:07:56;97594.28;;;-0.70;nan
54936;BME280;40838;50.676;7.838;2022-12-11T13:10:28;97599.91;;;-0.66;nan
54936;BME280;40838;50.676;7.838;2022-12-11T13:12:56;97600.00;;;-0.75;nan
54936;BME280;40838;50.676;7.838;2022-12-11T13:15:25;97604.44;;;-0.69;nan
54936;BME280;40838;50.676;7.838;2022-12-11T13:17:56;97597.25;;;-0.52;nan
54936;BME280;40838;50.676;7.838;2022-12-11T13:20:26;97597.16;;;-0.80;nan
54936;BME280;40838;50.676;7.838;2022-12-11T13:23:13;97603.69;;;-0.84;nan
54936;BME280;40838;50.676;7.838;2022-12-11T13:25:48;97605.13;;;-0.81;nan
54936;BME280;40838;50.676;7.838;2022-12-11T13:28:29;97608.28;;;-0.64;nan
54936;BME280;40838;50.676;7.838;2022-12-11T13:31:06;97614.19;;;-1.07;nan
54936;BME280;40838;50.676;7.838;2022-12-11T13:33:40;97604.88;;;-0.86;nan
54936;BME280;40838;50.676;7.838;2022-12-11T13:36:34;97609.47;;;-1.18;nan
54936;BME280;40838;50.676;7.838;2022-12-11T13:39:04;97617.50;;;-1.13;nan
54936;BME280;40838;50.676;7.838;2022-12-11T13:41:34;97611.72;;;-0.79;nan
54936;BME280;40838;50.676;7.838;2022-12-11T13:44:04;97608.72;;;-0.61;nan